Time;durP1;ratioP1;P1;durP2;ratioP2;P2;SDS_P1;SDS_P2;PMS_P1;PMS_P2;Temp;Humidity;BMP_temperature;BMP_pressure;BME280_temperature;BME280_humidity;BME280_pressure;Samples;Min_cycle;Max_cycle;Signal;HPM_P1;HPM_P2
2021/05/19 00:01:41;;;;;;;6.27;2.73;;;;;;;15.00;66.39;101224.94;4916888;29;20044;-63
2021/05/19 00:04:09;;;;;;;4.90;1.90;;;;;;;15.01;66.23;101218.16;4916719;29;20056;-63
2021/05/19 00:06:37;;;;;;;5.63;1.87;;;;;;;14.95;66.22;101214.56;4900211;29;20054;-64
2021/05/19 00:09:07;;;;;;;4.60;1.77;;;;;;;14.89;66.05;101210.97;4879392;29;20057;-64
2021/05/19 00:11:35;;;;;;;5.88;1.90;;;;;;;14.96;66.25;101216.25;4879680;29;20468;-66
2021/05/19 00:14:04;;;;;;;4.67;1.93;;;;;;;14.93;65.86;101228.91;4879339;29;20110;-64
2021/05/19 00:16:31;;;;;;;7.00;2.83;;;;;;;14.95;66.02;101223.03;4879133;29;20189;-64
2021/05/19 00:18:58;;;;;;;8.57;2.47;;;;;;;14.74;65.89;101197.03;4880102;29;20101;-61
2021/05/19 00:21:26;;;;;;;10.20;2.33;;;;;;;14.88;65.99;101223.34;4879193;29;20132;-61
2021/05/19 00:23:53;;;;;;;6.30;3.13;;;;;;;14.54;66.16;101166.25;4879345;29;20132;-62
2021/05/19 00:26:20;;;;;;;9.00;3.13;;;;;;;14.89;66.08;101227.84;4877843;29;20509;-61
2021/05/19 00:28:51;;;;;;;9.30;3.17;;;;;;;14.87;66.07;101220.81;4879063;29;20082;-63
2021/05/19 00:31:20;;;;;;;5.40;2.70;;;;;;;14.75;66.28;101218.38;4879030;29;20060;-63
2021/05/19 00:33:47;;;;;;;7.68;2.33;;;;;;;14.68;66.15;101201.84;4879059;29;20049;-60
2021/05/19 00:36:14;;;;;;;6.40;2.53;;;;;;;14.82;65.89;101232.94;4879005;29;20095;-63
2021/05/19 00:38:41;;;;;;;11.60;3.07;;;;;;;14.70;66.06;101207.19;4879382;29;20045;-63
2021/05/19 00:41:09;;;;;;;7.40;2.73;;;;;;;14.61;66.02;101204.16;4878979;29;20085;-63
2021/05/19 00:43:36;;;;;;;6.90;2.70;;;;;;;14.74;66.21;101229.94;4878665;29;20095;-61
2021/05/19 00:46:04;;;;;;;5.90;2.73;;;;;;;14.75;66.03;101228.78;4878891;29;20108;-61
2021/05/19 00:48:30;;;;;;;6.60;2.23;;;;;;;14.54;65.90;101192.41;4893349;29;20045;-62
2021/05/19 00:50:58;;;;;;;11.63;2.90;;;;;;;14.64;66.08;101220.44;4879196;29;20417;-63
2021/05/19 00:53:25;;;;;;;9.93;3.80;;;;;;;14.63;66.13;101220.72;4879141;29;20085;-63
2021/05/19 00:55:52;;;;;;;4.30;2.57;;;;;;;14.64;66.06;101214.81;4878541;29;20526;-63
2021/05/19 00:58:19;;;;;;;7.87;3.37;;;;;;;14.68;66.05;101215.06;4878958;29;20132;-69
2021/05/19 01:00:46;;;;;;;5.43;2.50;;;;;;;14.65;66.28;101226.88;4878931;29;20442;-69
2021/05/19 01:03:13;;;;;;;5.77;2.50;;;;;;;14.66;66.35;101232.22;4879037;29;20064;-69
2021/05/19 01:11:07;;;;;;;9.00;3.13;;;;;;;14.62;66.21;101193.75;4916150;29;20567;-69
2021/05/19 01:13:36;;;;;;;8.67;3.30;;;;;;;14.64;66.29;101202.72;4919219;29;20132;-67
2021/05/19 01:16:03;;;;;;;6.53;2.87;;;;;;;14.60;66.47;101198.84;4919647;29;20104;-68
2021/05/19 01:18:30;;;;;;;10.83;2.83;;;;;;;14.57;66.41;101199.41;4919733;29;20052;-65
2021/05/19 01:20:58;;;;;;;7.67;2.50;;;;;;;14.51;66.50;101192.13;4920118;29;20052;-64
2021/05/19 01:23:29;;;;;;;4.43;2.37;;;;;;;14.57;66.51;101207.84;4919937;29;20067;-65
2021/05/19 01:25:58;;;;;;;12.40;3.67;;;;;;;14.44;66.54;101181.19;4902896;29;20104;-66
2021/05/19 01:28:25;;;;;;;9.20;2.90;;;;;;;14.57;66.70;101200.25;4919782;29;20122;-67
2021/05/19 01:30:52;;;;;;;5.03;2.63;;;;;;;14.59;66.46;101199.94;4919785;29;20071;-70
2021/05/19 01:33:19;;;;;;;6.57;2.53;;;;;;;14.51;66.45;101187.34;4919931;29;20056;-67
2021/05/19 01:35:46;;;;;;;5.10;2.10;;;;;;;14.57;66.63;101196.59;4919194;29;20079;-68
2021/05/19 01:38:14;;;;;;;7.03;2.43;;;;;;;14.59;66.34;101205.56;4902650;29;20068;-66
2021/05/19 01:40:41;;;;;;;7.23;2.40;;;;;;;14.56;66.34;101203.34;4919406;29;20107;-68
2021/05/19 01:43:08;;;;;;;4.77;2.00;;;;;;;14.55;66.28;101193.22;4919293;29;20044;-67
2021/05/19 01:45:35;;;;;;;5.67;1.80;;;;;;;14.45;66.28;101186.50;4919130;29;20143;-66
2021/05/19 01:48:02;;;;;;;8.50;2.33;;;;;;;14.59;66.25;101202.75;4919552;29;20460;-67
2021/05/19 01:50:34;;;;;;;5.57;2.57;;;;;;;14.54;66.32;101202.81;4919303;29;20048;-70
2021/05/19 01:53:04;;;;;;;5.27;1.90;;;;;;;14.53;66.36;101201.97;4919428;29;20437;-70
2021/05/19 01:55:31;;;;;;;5.57;2.13;;;;;;;14.53;66.36;101201.97;4919092;29;20051;-67
2021/05/19 01:57:58;;;;;;;6.90;2.20;;;;;;;14.40;66.33;101186.56;4902579;29;20446;-73
2021/05/19 02:00:27;;;;;;;5.30;2.40;;;;;;;14.38;66.34;101176.72;4902298;29;20048;-74
2021/05/19 02:03:05;;;;;;;5.23;3.17;;;;;;;14.35;66.42;101188.53;4919158;29;20076;-66
2021/05/19 02:05:34;;;;;;;5.83;2.57;;;;;;;14.21;66.47;101160.25;4918897;29;20049;-68
2021/05/19 02:08:05;;;;;;;7.70;2.20;;;;;;;14.29;66.54;101189.69;4918920;29;20084;-67
2021/05/19 02:10:34;;;;;;;5.37;2.17;;;;;;;14.27;66.58;101189.16;4919255;29;20075;-65
2021/05/19 02:13:07;;;;;;;5.33;1.83;;;;;;;14.27;66.60;101192.81;4902421;29;20055;-66
2021/05/19 02:15:35;;;;;;;7.03;2.73;;;;;;;14.29;66.68;101196.19;4918863;29;20080;-68
2021/05/19 02:18:03;;;;;;;8.87;2.50;;;;;;;14.33;66.51;101196.44;4918737;29;20068;-69
2021/05/19 02:20:30;;;;;;;7.50;2.83;;;;;;;14.25;66.39;101185.78;4918688;29;20079;-64
2021/05/19 02:22:57;;;;;;;7.17;2.60;;;;;;;14.09;66.31;101168.22;4918037;29;20505;-63
2021/05/19 02:25:24;;;;;;;6.07;2.37;;;;;;;14.30;66.46;101197.03;4918462;29;20548;-66
2021/05/19 02:27:52;;;;;;;6.10;2.90;;;;;;;14.28;66.38;101183.25;4918946;29;20047;-63
2021/05/19 02:30:21;;;;;;;5.70;2.60;;;;;;;14.21;66.32;101177.94;4918612;29;20048;-64
2021/05/19 02:32:48;;;;;;;7.17;2.53;;;;;;;14.25;66.45;101189.44;4918455;29;20048;-65
2021/05/19 02:35:16;;;;;;;9.43;2.90;;;;;;;14.17;66.46;101188.09;4917549;29;20076;-66
2021/05/19 02:37:43;;;;;;;6.63;2.63;;;;;;;14.04;66.73;101162.59;4918905;29;20072;-63
2021/05/19 02:40:13;;;;;;;9.17;3.10;;;;;;;14.06;66.80;101168.78;4918185;29;20079;-67
2021/05/19 02:42:40;;;;;;;6.75;3.08;;;;;;;14.18;66.90;101192.56;4919168;29;20073;-67
2021/05/19 02:45:08;;;;;;;7.27;3.20;;;;;;;14.01;66.90;101166.00;4918326;29;20086;-66
2021/05/19 02:47:35;;;;;;;8.57;2.77;;;;;;;14.14;67.14;101193.44;4918364;29;20052;-65
2021/05/19 02:50:07;;;;;;;9.90;2.43;;;;;;;14.09;67.20;101180.28;4918539;29;20080;-66
2021/05/19 02:52:34;;;;;;;13.90;3.73;;;;;;;14.10;67.30;101189.53;4917960;29;20060;-67
2021/05/19 02:55:01;;;;;;;6.00;2.60;;;;;;;14.01;67.46;101166.00;4901690;29;20552;-67
2021/05/19 02:57:27;;;;;;;7.90;2.63;;;;;;;13.94;67.49;101155.91;4918223;29;20052;-64
2021/05/19 02:59:54;;;;;;;13.07;3.17;;;;;;;14.02;67.55;101156.44;4918280;29;20048;-64
2021/05/19 03:02:21;;;;;;;9.57;2.93;;;;;;;14.17;67.58;101185.28;4917969;29;20048;-70
2021/05/19 03:04:49;;;;;;;6.43;2.50;;;;;;;14.17;67.59;101187.25;4917766;29;20063;-70
2021/05/19 03:07:16;;;;;;;4.60;2.33;;;;;;;14.14;67.70;101182.22;4901413;29;20122;-77
2021/05/19 03:09:43;;;;;;;4.83;2.30;;;;;;;14.10;67.54;101172.69;4917937;29;20090;-65
2021/05/19 03:12:09;;;;;;;7.43;2.93;;;;;;;14.09;67.63;101179.44;4918099;29;20142;-66
2021/05/19 03:14:36;;;;;;;4.93;2.23;;;;;;;14.09;67.65;101160.63;4918072;29;20475;-72
2021/05/19 03:17:03;;;;;;;8.13;3.07;;;;;;;13.99;67.70;101144.66;4917595;29;20052;-66
2021/05/19 03:19:30;;;;;;;5.83;2.60;;;;;;;14.14;67.68;101169.00;4916769;29;20116;-66
2021/05/19 03:21:58;;;;;;;8.07;3.27;;;;;;;14.14;67.67;101156.94;4917723;29;20083;-69
2021/05/19 03:24:25;;;;;;;4.67;2.47;;;;;;;14.16;67.67;101172.38;4917425;29;20083;-66
2021/05/19 03:26:52;;;;;;;7.63;2.53;;;;;;;13.81;67.58;101119.19;4917563;29;20052;-69
2021/05/19 03:29:18;;;;;;;5.53;2.77;;;;;;;14.04;67.68;101162.59;4917782;29;20103;-68
2021/05/19 03:31:45;;;;;;;7.80;2.30;;;;;;;14.10;67.48;101176.34;4917758;29;20449;-66
2021/05/19 03:34:13;;;;;;;4.10;2.20;;;;;;;14.14;67.29;101170.97;4916772;29;20564;-71
2021/05/19 03:36:40;;;;;;;6.93;2.30;;;;;;;14.11;67.21;101171.56;4917213;29;20091;-66
2021/05/19 03:39:09;;;;;;;6.30;2.77;;;;;;;14.09;67.42;101165.41;4917716;29;20056;-67
2021/05/19 03:41:37;;;;;;;6.00;2.72;;;;;;;14.09;67.50;101171.84;4917570;29;20075;-67
2021/05/19 03:44:06;;;;;;;10.40;2.23;;;;;;;13.89;67.36;101136.28;4917044;29;20519;-67
2021/05/19 03:46:33;;;;;;;4.40;1.97;;;;;;;14.10;67.45;101175.50;4917453;29;20072;-67
2021/05/19 03:49:02;;;;;;;3.10;1.90;;;;;;;14.08;67.40;101172.13;4917085;29;20048;-68
2021/05/19 03:51:29;;;;;;;5.20;2.33;;;;;;;14.06;67.33;101168.78;4917313;29;20075;-68
2021/05/19 03:53:56;;;;;;;4.43;2.50;;;;;;;14.03;67.36;101169.38;4916946;29;20084;-67
2021/05/19 03:56:24;;;;;;;9.63;2.77;;;;;;;14.04;67.43;101171.03;4917164;29;20072;-66
2021/05/19 03:58:51;;;;;;;5.93;2.70;;;;;;;14.04;67.54;101171.03;4900492;29;20082;-66
2021/05/19 04:01:18;;;;;;;6.57;2.63;;;;;;;14.05;67.34;101178.31;4916850;29;20084;-69
2021/05/19 04:03:45;;;;;;;7.80;3.13;;;;;;;14.04;67.38;101188.72;4900119;29;20094;-70
2021/05/19 04:06:12;;;;;;;8.13;3.03;;;;;;;14.04;67.43;101185.06;4916678;29;20127;-71
2021/05/19 04:08:41;;;;;;;6.27;3.40;;;;;;;14.03;67.50;101186.22;4916869;29;20083;-70
2021/05/19 04:11:09;;;;;;;8.63;3.20;;;;;;;13.97;67.53;101177.78;4916545;29;20548;-70
2021/05/19 04:13:36;;;;;;;8.73;3.00;;;;;;;13.97;67.69;101183.41;4900321;29;20282;-70
2021/05/19 04:16:04;;;;;;;8.60;3.33;;;;;;;13.95;67.66;101190.47;4916650;29;20389;-71
2021/05/19 04:18:31;;;;;;;12.97;3.90;;;;;;;13.94;67.61;101198.03;4916987;29;20457;-69
2021/05/19 04:21:02;;;;;;;7.13;3.43;;;;;;;13.74;67.70;101167.22;4915720;29;20127;-65
2021/05/19 04:23:29;;;;;;;10.17;4.17;;;;;;;13.92;67.71;101189.06;4916612;29;20048;-70
2021/05/19 04:25:56;;;;;;;10.67;4.00;;;;;;;13.84;67.60;101178.41;4916889;29;20099;-70
2021/05/19 04:28:23;;;;;;;8.20;3.83;;;;;;;13.88;67.76;101185.16;4916520;29;20087;-70
2021/05/19 04:30:51;;;;;;;8.97;3.97;;;;;;;13.88;67.83;101182.34;4916493;29;20076;-69
2021/05/19 04:33:19;;;;;;;7.53;3.70;;;;;;;13.86;67.78;101193.03;4916580;29;20104;-70
2021/05/19 04:35:47;;;;;;;6.90;3.10;;;;;;;13.74;67.64;101189.69;4916542;29;20044;-70
2021/05/19 04:38:14;;;;;;;5.83;2.90;;;;;;;13.56;67.79;101170.66;4916449;29;20111;-70
2021/05/19 04:40:41;;;;;;;9.47;3.47;;;;;;;13.69;67.67;101198.13;4916554;29;20103;-70
2021/05/19 04:43:09;;;;;;;7.27;3.30;;;;;;;13.60;67.59;101188.63;4916730;29;20076;-70
2021/05/19 04:45:37;;;;;;;5.33;3.40;;;;;;;13.60;67.57;101177.38;4917114;29;20120;-70
2021/05/19 04:48:05;;;;;;;6.73;3.20;;;;;;;13.59;67.79;101190.59;4920414;29;20083;-70
2021/05/19 04:50:33;;;;;;;9.50;3.73;;;;;;;13.59;67.92;101182.16;4920228;29;20081;-68
2021/05/19 04:53:01;;;;;;;8.37;3.60;;;;;;;13.58;68.09;101185.28;4920231;29;20095;-67
2021/05/19 04:55:28;;;;;;;9.30;3.63;;;;;;;13.54;68.19;101178.53;4920076;29;20107;-64
2021/05/19 04:57:55;;;;;;;8.23;3.50;;;;;;;13.66;68.17;101187.47;4920206;29;20099;-62
2021/05/19 05:00:22;;;;;;;8.37;3.77;;;;;;;13.48;68.23;101164.53;4919213;29;20433;-61
2021/05/19 05:02:48;;;;;;;11.50;3.70;;;;;;;13.61;68.18;101184.72;4921035;29;20079;-67
2021/05/19 05:05:16;;;;;;;6.03;3.50;;;;;;;13.50;68.31;101178.25;4903250;29;20528;-72
2021/05/19 05:07:43;;;;;;;6.43;3.77;;;;;;;13.67;68.20;101203.19;4919787;29;20080;-73
2021/05/19 05:10:11;;;;;;;7.40;3.50;;;;;;;13.55;68.25;101185.84;4919988;29;20056;-60
2021/05/19 05:12:38;;;;;;;6.67;3.63;;;;;;;13.64;68.40;101200.94;4918733;29;20136;-62
2021/05/19 05:15:07;;;;;;;12.93;4.60;;;;;;;13.64;68.23;101207.41;4919904;29;20084;-73
2021/05/19 05:17:35;;;;;;;8.27;3.90;;;;;;;13.64;68.28;101210.22;4919889;29;20112;-69
2021/05/19 05:20:03;;;;;;;9.60;4.17;;;;;;;13.61;68.26;101202.38;4919717;29;20132;-72
2021/05/19 05:22:30;;;;;;;12.13;4.13;;;;;;;13.66;68.55;101215.53;4919549;29;20044;-69
2021/05/19 05:24:57;;;;;;;9.03;4.30;;;;;;;13.27;68.38;101143.28;4919499;29;20055;-67
2021/05/19 05:27:24;;;;;;;7.00;4.13;;;;;;;13.68;68.44;101214.16;4919604;29;20048;-68
2021/05/19 05:29:51;;;;;;;8.80;4.47;;;;;;;13.64;68.50;101206.56;4919584;29;20111;-68
2021/05/19 05:32:17;;;;;;;8.83;4.20;;;;;;;13.70;68.28;101213.84;4919353;29;20499;-69
2021/05/19 05:34:45;;;;;;;7.93;4.90;;;;;;;13.74;68.40;101224.22;4919276;29;20044;-68
2021/05/19 05:37:12;;;;;;;7.43;4.43;;;;;;;13.71;68.41;101207.13;4919366;29;20075;-69
2021/05/19 05:39:39;;;;;;;7.40;4.50;;;;;;;13.84;68.41;101228.94;4919629;29;20090;-70
2021/05/19 05:42:06;;;;;;;12.50;4.63;;;;;;;13.93;68.32;101238.47;4919503;29;20052;-69
2021/05/19 05:44:34;;;;;;;10.13;4.23;;;;;;;13.91;68.46;101223.03;4919225;29;20058;-69
2021/05/19 05:47:00;;;;;;;9.80;4.40;;;;;;;14.21;68.11;101238.91;4919249;29;20552;-72
2021/05/19 05:49:28;;;;;;;11.33;4.37;;;;;;;14.23;68.25;101236.66;4919210;29;20052;-68
2021/05/19 05:51:55;;;;;;;8.40;5.60;;;;;;;14.47;68.10;101242.44;4919017;29;20095;-61
2021/05/19 05:54:21;;;;;;;7.37;4.20;;;;;;;14.63;68.06;101252.50;4919127;29;20090;-62
2021/05/19 05:56:49;;;;;;;11.70;5.17;;;;;;;14.30;67.76;101192.25;4919124;29;20127;-60
2021/05/19 05:59:15;;;;;;;10.93;4.70;;;;;;;14.99;67.49;101257.03;4918538;29;20466;-61
2021/05/19 06:01:43;;;;;;;13.37;4.87;;;;;;;15.16;67.12;101260.25;4902435;29;20457;-67
2021/05/19 06:04:10;;;;;;;11.07;5.57;;;;;;;15.33;66.94;101260.66;4919198;29;20052;-65
2021/05/19 06:06:37;;;;;;;11.47;4.87;;;;;;;15.41;66.74;101265.63;4918816;29;20504;-66
2021/05/19 06:09:06;;;;;;;12.70;4.80;;;;;;;15.44;66.45;101246.50;4918720;29;20131;-68
2021/05/19 06:11:33;;;;;;;10.95;4.60;;;;;;;15.73;66.46;101269.88;4919108;29;20395;-68
2021/05/19 06:14:00;;;;;;;6.60;4.13;;;;;;;15.94;65.87;101267.69;4919025;29;20083;-69
2021/05/19 06:16:28;;;;;;;8.87;4.53;;;;;;;16.05;65.57;101290.94;4901946;29;20060;-68
2021/05/19 06:18:55;;;;;;;10.20;4.43;;;;;;;15.87;65.17;101268.03;4918540;29;20083;-68
2021/05/19 06:21:22;;;;;;;11.57;4.53;;;;;;;15.89;65.30;101284.63;4917330;29;20052;-67
2021/05/19 06:23:49;;;;;;;10.15;3.88;;;;;;;15.92;65.23;101292.47;4918288;29;20107;-66
2021/05/19 06:26:16;;;;;;;6.97;4.10;;;;;;;15.56;65.29;101230.88;4902121;29;20059;-66
2021/05/19 06:28:43;;;;;;;5.93;3.58;;;;;;;16.03;64.99;101293.19;4919116;29;20115;-66
2021/05/19 06:31:10;;;;;;;10.60;3.92;;;;;;;16.20;64.87;101298.34;4918366;29;20048;-67
2021/05/19 06:33:37;;;;;;;7.75;3.25;;;;;;;16.32;64.33;101293.97;4918292;29;20048;-67
2021/05/19 06:36:04;;;;;;;12.02;4.85;;;;;;;16.42;63.92;101290.19;4918269;29;20059;-67
2021/05/19 06:38:31;;;;;;;11.48;4.45;;;;;;;16.56;64.05;101295.91;4918514;29;20044;-67
2021/05/19 06:40:58;;;;;;;6.97;3.65;;;;;;;16.74;63.48;101295.13;4918521;29;20052;-67
2021/05/19 06:43:25;;;;;;;7.30;3.75;;;;;;;16.76;63.07;101275.91;4917984;29;20055;-67
2021/05/19 06:45:55;;;;;;;7.85;3.42;;;;;;;17.08;63.15;101285.59;4918000;29;20463;-67
2021/05/19 06:48:22;;;;;;;6.05;3.60;;;;;;;17.13;62.78;101273.38;4918187;29;20076;-67
2021/05/19 06:50:49;;;;;;;7.72;3.22;;;;;;;17.33;62.19;101272.19;4917981;29;20102;-67
2021/05/19 06:53:16;;;;;;;7.95;3.20;;;;;;;17.66;61.29;101287.97;4917915;29;20535;-67
2021/05/19 06:55:51;;;;;;;8.45;2.80;;;;;;;17.87;61.08;101293.28;4917788;29;20049;-67
2021/05/19 06:58:18;;;;;;;5.32;2.80;;;;;;;17.97;60.61;101270.47;4917639;29;20056;-67
2021/05/19 07:00:45;;;;;;;7.15;3.17;;;;;;;18.19;60.12;101276.25;4917961;29;20066;-66
2021/05/19 07:03:12;;;;;;;6.75;3.38;;;;;;;18.21;59.41;101250.47;4917733;29;20100;-67
2021/05/19 07:05:40;;;;;;;5.45;3.05;;;;;;;18.46;59.18;101274.53;4917732;29;20052;-66
2021/05/19 07:08:12;;;;;;;10.57;3.70;;;;;;;18.66;58.98;101282.56;4917752;29;20079;-67
2021/05/19 07:10:39;;;;;;;9.30;3.15;;;;;;;18.79;58.62;101271.56;4917658;29;20055;-67
2021/05/19 07:13:06;;;;;;;13.13;3.60;;;;;;;18.79;57.97;101265.91;4916529;29;20048;-67
2021/05/19 07:15:37;;;;;;;9.35;3.03;;;;;;;18.90;57.58;101276.66;4917348;29;20060;-67
2021/05/19 07:18:05;;;;;;;8.00;2.78;;;;;;;18.87;57.50;101265.13;4916406;29;20131;-68
2021/05/19 07:20:33;;;;;;;6.25;2.88;;;;;;;18.99;57.17;101279.56;4917605;29;20084;-68
2021/05/19 07:23:00;;;;;;;8.68;3.38;;;;;;;19.05;56.88;101283.13;4917469;29;20104;-68
2021/05/19 07:25:27;;;;;;;10.10;3.92;;;;;;;18.90;57.15;101281.47;4917617;29;20052;-68
2021/05/19 07:27:54;;;;;;;9.60;3.55;;;;;;;18.93;56.66;101289.34;4917336;29;20076;-68
2021/05/19 07:30:21;;;;;;;4.85;2.38;;;;;;;18.73;56.82;101287.81;4917573;29;20111;-69
2021/05/19 07:32:48;;;;;;;7.53;3.08;;;;;;;18.77;57.00;101293.69;4917657;29;20056;-68
2021/05/19 07:35:15;;;;;;;5.93;2.88;;;;;;;18.88;56.52;101293.13;4917335;29;20616;-69
2021/05/19 07:37:42;;;;;;;7.78;2.63;;;;;;;19.05;56.40;101295.28;4917664;29;20103;-69
2021/05/19 07:40:10;;;;;;;8.38;2.97;;;;;;;19.09;56.13;101293.47;4917179;29;20048;-69
2021/05/19 07:42:36;;;;;;;6.03;2.95;;;;;;;19.18;55.69;101277.41;4916995;29;20052;-68
2021/05/19 07:45:04;;;;;;;7.38;2.47;;;;;;;19.49;54.89;101285.13;4915966;29;20416;-69
2021/05/19 07:47:31;;;;;;;5.13;2.22;;;;;;;19.81;54.37;101283.19;4917099;29;20107;-69
2021/05/19 07:49:56;;;;;;;4.18;1.80;;;;;;;20.07;53.64;101289.81;4917049;29;20039;-69
2021/05/19 07:52:22;;;;;;;4.55;1.90;;;;;;;20.10;52.97;101255.13;4917392;29;20048;-68
2021/05/19 07:54:48;;;;;;;3.33;1.52;;;;;;;20.48;52.33;101285.78;4916973;29;20044;-68
2021/05/19 07:57:24;;;;;;;4.43;2.13;;;;;;;20.65;51.92;101275.66;4917178;29;20438;-67
2021/05/19 08:02:34;;;;;;;4.43;1.77;;;;;;;20.88;51.33;101287.69;4916221;29;20044;-67
2021/05/19 08:05:00;;;;;;;7.80;2.53;;;;;;;21.03;50.64;101284.38;4915720;29;20059;-68
2021/05/19 08:07:25;;;;;;;4.72;2.60;;;;;;;21.29;50.67;101278.69;4916604;29;20044;-67
2021/05/19 08:09:51;;;;;;;5.70;2.20;;;;;;;21.92;49.89;101293.31;4900084;29;20124;-68
2021/05/19 08:12:16;;;;;;;3.65;1.77;;;;;;;22.39;49.22;101299.84;4917019;29;20040;-68
2021/05/19 08:14:42;;;;;;;6.60;2.15;;;;;;;22.77;48.95;101303.78;4916692;29;20028;-68
2021/05/19 08:17:08;;;;;;;5.65;1.77;;;;;;;23.17;48.08;101304.16;4916615;29;20040;-67
2021/05/19 08:19:33;;;;;;;4.13;2.30;;;;;;;23.66;47.67;101298.69;4916609;29;20127;-68
2021/05/19 08:22:00;;;;;;;4.80;1.92;;;;;;;23.98;46.87;101305.56;4916022;29;20489;-68
2021/05/19 08:24:27;;;;;;;5.18;2.10;;;;;;;24.08;46.48;101298.59;4899921;29;20126;-68
2021/05/19 08:26:54;;;;;;;5.15;2.90;;;;;;;24.08;45.76;101299.41;4916903;29;20048;-68
2021/05/19 08:29:21;;;;;;;4.38;2.42;;;;;;;24.20;45.60;101301.44;4917077;29;20048;-68
2021/05/19 08:31:48;;;;;;;9.68;2.88;;;;;;;24.38;46.14;101295.53;4916649;29;20500;-69
2021/05/19 08:34:15;;;;;;;7.63;2.67;;;;;;;24.75;44.83;101302.91;4899857;29;20048;-69
2021/05/19 08:36:42;;;;;;;3.95;2.00;;;;;;;25.01;44.68;101301.66;4916902;29;20048;-69
2021/05/19 08:39:09;;;;;;;5.85;2.40;;;;;;;25.32;44.18;101291.59;4899824;29;20080;-69
2021/05/19 08:41:37;;;;;;;4.47;1.98;;;;;;;25.30;43.74;101269.09;4916821;29;20048;-69
2021/05/19 08:44:05;;;;;;;5.72;2.60;;;;;;;25.66;42.87;101302.38;4916572;29;20056;-68
2021/05/19 08:46:32;;;;;;;5.18;2.42;;;;;;;25.70;42.52;101294.72;4916561;29;20056;-67
2021/05/19 08:49:03;;;;;;;5.70;2.13;;;;;;;25.80;42.52;101281.97;4916671;29;20123;-67
2021/05/19 08:51:31;;;;;;;3.83;2.08;;;;;;;25.95;42.20;101284.03;4916418;29;20059;-69
2021/05/19 08:53:57;;;;;;;5.97;2.03;;;;;;;26.30;41.94;101299.63;4915122;29;20461;-69
2021/05/19 08:56:24;;;;;;;3.75;1.90;;;;;;;26.44;41.15;101302.84;4916562;29;20111;-68
2021/05/19 08:58:51;;;;;;;4.82;1.90;;;;;;;26.57;41.45;101300.75;4916238;29;20052;-69
2021/05/19 09:01:23;;;;;;;5.18;2.22;;;;;;;26.77;40.74;101295.88;4916440;29;20104;-69
2021/05/19 09:04:04;;;;;;;5.35;2.40;;;;;;;26.83;40.68;101289.50;4899410;29;20083;-69
2021/05/19 09:06:35;;;;;;;3.97;2.00;;;;;;;27.03;40.26;101292.41;4916311;29;20056;-69
2021/05/19 09:09:22;;;;;;;;;;;;;;;26.84;42.64;101291.19;4915365;29;20083;-67
2021/05/19 09:12:01;;;;;;;3.60;1.98;;;;;;;27.05;40.67;101279.38;4916524;29;20343;-61
2021/05/19 09:14:33;;;;;;;5.00;1.40;;;;;;;27.16;39.30;101256.69;4916268;29;20088;-61
2021/05/19 09:17:19;;;;;;;3.75;1.52;;;;;;;27.22;38.96;101275.25;4899410;29;20052;-61
2021/05/19 09:19:47;;;;;;;4.45;1.40;;;;;;;27.30;37.81;101279.09;4916440;29;20044;-60
2021/05/19 09:22:22;;;;;;;2.03;1.27;;;;;;;27.44;37.17;101285.13;4916283;29;20088;-62
2021/05/19 09:24:50;;;;;;;1.85;1.20;;;;;;;27.40;36.90;101289.97;4916224;29;20133;-61
2021/05/19 09:27:17;;;;;;;3.95;1.85;;;;;;;27.49;36.81;101279.09;4916163;29;20053;-64
2021/05/19 09:29:51;;;;;;;4.45;1.92;;;;;;;27.74;36.30;101275.88;4916011;29;20094;-64
2021/05/19 09:32:20;;;;;;;2.85;1.13;;;;;;;27.94;35.26;101263.19;4916150;29;20088;-63
2021/05/19 09:34:52;;;;;;;2.50;1.20;;;;;;;28.12;35.18;101272.09;4902830;29;20079;-64
2021/05/19 09:37:24;;;;;;;3.00;1.63;;;;;;;28.22;34.80;101268.59;4902969;29;20086;-62
2021/05/19 09:39:58;;;;;;;6.20;1.90;;;;;;;28.34;34.92;101261.78;4919879;29;20044;-62
2021/05/19 09:42:26;;;;;;;4.10;1.40;;;;;;;28.54;33.69;101265.44;4919877;29;20083;-66
2021/05/19 09:44:56;;;;;;;5.03;1.40;;;;;;;28.44;33.47;101263.22;4919713;29;20465;-65
2021/05/19 09:47:39;;;;;;;3.00;1.40;;;;;;;28.32;34.03;101267.13;4919746;29;20064;-67
2021/05/19 09:50:08;;;;;;;2.58;1.40;;;;;;;28.52;33.15;101265.00;4919664;29;20052;-63
2021/05/19 09:52:35;;;;;;;7.15;2.28;;;;;;;28.70;33.43;101271.03;4918932;29;20080;-64
2021/05/19 09:55:09;;;;;;;2.97;1.50;;;;;;;28.83;32.57;101257.25;4919448;29;20483;-62
2021/05/19 09:57:51;;;;;;;5.85;2.40;;;;;;;28.79;33.28;101226.41;4919161;29;20055;-59
2021/05/19 10:00:24;;;;;;;4.95;2.17;;;;;;;29.04;33.02;101241.16;4919358;29;20099;-60
2021/05/19 10:02:52;;;;;;;6.30;1.75;;;;;;;29.07;32.29;101230.09;4919019;29;20479;-68
2021/05/19 10:07:53;;;;;;;3.63;1.90;;;;;;;29.37;32.16;101248.16;4918713;29;20100;-68
2021/05/19 10:10:23;;;;;;;5.00;2.00;;;;;;;29.41;31.50;101234.63;4919374;29;20082;-67
2021/05/19 10:12:50;;;;;;;4.53;1.55;;;;;;;29.48;31.43;101242.50;4918720;29;20083;-68
2021/05/19 10:15:29;;;;;;;5.13;1.83;;;;;;;29.40;31.20;101241.59;4918687;29;20076;-69
2021/05/19 10:18:05;;;;;;;2.92;2.13;;;;;;;29.34;31.82;101237.41;4919084;29;20139;-69
2021/05/19 10:20:41;;;;;;;5.95;2.42;;;;;;;29.33;31.68;101224.22;4902051;29;20067;-68
2021/05/19 10:23:11;;;;;;;7.38;2.50;;;;;;;29.45;31.55;101249.88;4919031;29;20136;-68
2021/05/19 10:25:44;;;;;;;6.90;2.40;;;;;;;29.47;31.18;101241.69;4918878;29;20392;-67
2021/05/19 10:28:16;;;;;;;8.10;2.47;;;;;;;29.48;31.13;101243.34;4918716;29;20048;-69
2021/05/19 10:30:50;;;;;;;7.53;2.70;;;;;;;29.42;31.82;101244.91;4918493;29;20044;-67
2021/05/19 10:33:29;;;;;;;4.70;2.40;;;;;;;29.39;31.30;101247.75;4918491;29;20473;-67
2021/05/19 10:35:57;;;;;;;4.15;2.50;;;;;;;29.27;31.41;101225.84;4901908;29;20081;-67
2021/05/19 10:38:35;;;;;;;3.73;2.17;;;;;;;29.10;31.34;101249.44;4918531;29;20044;-67
2021/05/19 10:41:04;;;;;;;8.30;2.63;;;;;;;28.62;31.31;101160.06;4918414;29;20350;-68
2021/05/19 10:43:54;;;;;;;8.88;3.88;;;;;;;29.13;31.61;101246.63;4918953;29;20072;-68
2021/05/19 10:47:07;;;;;;;5.05;2.38;;;;;;;29.13;32.65;101243.75;4918371;29;20111;-68
2021/05/19 10:49:48;;;;;;;6.60;2.28;;;;;;;29.43;31.75;101237.09;4897346;29;20532;-68
2021/05/19 10:57:44;;;;;;;11.60;2.35;;;;;;;29.60;30.73;101238.56;4917684;29;20069;-73
2021/05/19 11:00:24;;;;;;;4.32;2.45;;;;;;;29.71;30.91;101248.97;4918029;29;20112;-73
2021/05/19 11:02:54;;;;;;;6.47;2.65;;;;;;;29.96;30.67;101234.00;4917859;29;20044;-66
2021/05/19 11:05:25;;;;;;;4.03;2.45;;;;;;;30.17;30.76;101236.22;4917771;29;20153;-73
2021/05/19 11:08:18;;;;;;;4.10;1.95;;;;;;;30.08;30.81;101238.59;4917520;29;20056;-76
2021/05/19 11:10:49;;;;;;;4.13;2.20;;;;;;;30.01;30.93;101232.78;4899125;29;20052;-77
2021/05/19 11:13:18;;;;;;;4.60;2.60;;;;;;;30.07;30.60;101239.84;4917757;29;20048;-74
2021/05/19 11:15:59;;;;;;;6.15;2.70;;;;;;;30.23;30.68;101242.50;4917905;29;20562;-75
2021/05/19 11:21:16;;;;;;;7.03;2.08;;;;;;;30.35;30.30;101227.75;4917812;29;20471;-70
2021/05/19 11:24:12;;;;;;;5.80;2.45;;;;;;;30.16;31.46;101235.41;4917666;29;20149;-72
2021/05/19 11:26:44;;;;;;;4.93;2.30;;;;;;;30.20;30.78;101221.88;4917565;29;20111;-80
2021/05/19 11:29:13;;;;;;;4.00;2.25;;;;;;;30.38;29.58;101216.25;4917871;29;20048;-75
2021/05/19 11:31:44;;;;;;;;;;;;;;;30.20;31.81;101233.41;4918265;29;20052;-83
2021/05/19 11:34:15;;;;;;;6.53;2.90;;;;;;;30.60;30.44;101222.16;4918167;29;19965;-77
2021/05/19 11:37:03;;;;;;;4.03;2.30;;;;;;;30.57;31.10;101228.75;4918053;29;20111;-74
2021/05/19 11:39:37;;;;;;;4.65;2.22;;;;;;;30.45;30.62;101218.34;4917090;29;20493;-71
2021/05/19 11:42:25;;;;;;;4.90;2.13;;;;;;;30.42;30.26;101222.84;4917118;29;20058;-76
2021/05/19 11:45:09;;;;;;;3.85;2.10;;;;;;;30.32;30.57;101217.03;4916332;29;20076;-72
2021/05/19 11:47:38;;;;;;;4.88;2.60;;;;;;;30.12;30.25;101227.94;4917350;29;20123;-74
2021/05/19 11:50:15;;;;;;;5.15;2.17;;;;;;;30.13;30.17;101218.91;4917574;29;20058;-72
2021/05/19 11:53:00;;;;;;;4.95;2.10;;;;;;;30.56;30.64;101221.31;4917200;29;20367;-78